sensor_id;sensor_type;location;lat;lon;timestamp;P1;durP1;ratioP1;P2;durP2;ratioP2
50459;SDS011;36385;51.644;7.098;2022-12-10T00:00:38;60.75;;;28.55;;
50459;SDS011;36385;51.644;7.098;2022-12-10T00:03:07;62.67;;;28.95;;
50459;SDS011;36385;51.644;7.098;2022-12-10T00:05:33;64.68;;;29.58;;
50459;SDS011;36385;51.644;7.098;2022-12-10T00:07:59;67.60;;;29.83;;
50459;SDS011;36385;51.644;7.098;2022-12-10T00:10:25;65.38;;;29.90;;
50459;SDS011;36385;51.644;7.098;2022-12-10T00:12:51;61.15;;;28.25;;
50459;SDS011;36385;51.644;7.098;2022-12-10T00:15:16;57.75;;;28.33;;
50459;SDS011;36385;51.644;7.098;2022-12-10T00:17:42;65.35;;;29.13;;
50459;SDS011;36385;51.644;7.098;2022-12-10T00:20:08;64.82;;;27.85;;
50459;SDS011;36385;51.644;7.098;2022-12-10T00:22:34;61.88;;;26.85;;
50459;SDS011;36385;51.644;7.098;2022-12-10T00:25:00;62.90;;;27.17;;
50459;SDS011;36385;51.644;7.098;2022-12-10T00:27:25;56.90;;;27.67;;
50459;SDS011;36385;51.644;7.098;2022-12-10T00:29:51;64.53;;;28.13;;
50459;SDS011;36385;51.644;7.098;2022-12-10T00:32:17;61.22;;;29.45;;
50459;SDS011;36385;51.644;7.098;2022-12-10T00:34:42;61.50;;;27.80;;
50459;SDS011;36385;51.644;7.098;2022-12-10T00:37:08;58.92;;;27.85;;
50459;SDS011;36385;51.644;7.098;2022-12-10T00:39:34;61.08;;;28.83;;
50459;SDS011;36385;51.644;7.098;2022-12-10T00:41:59;60.67;;;28.17;;
50459;SDS011;36385;51.644;7.098;2022-12-10T00:44:25;66.47;;;28.83;;
50459;SDS011;36385;51.644;7.098;2022-12-10T00:46:50;63.53;;;27.75;;
50459;SDS011;36385;51.644;7.098;2022-12-10T00:49:16;61.72;;;27.63;;
50459;SDS011;36385;51.644;7.098;2022-12-10T00:51:42;63.95;;;27.67;;
50459;SDS011;36385;51.644;7.098;2022-12-10T00:54:07;61.25;;;27.92;;
50459;SDS011;36385;51.644;7.098;2022-12-10T00:56:33;63.05;;;29.35;;
50459;SDS011;36385;51.644;7.098;2022-12-10T00:59:00;64.65;;;29.55;;
50459;SDS011;36385;51.644;7.098;2022-12-10T01:01:28;63.20;;;28.05;;
50459;SDS011;36385;51.644;7.098;2022-12-10T01:04:00;63.45;;;29.15;;
50459;SDS011;36385;51.644;7.098;2022-12-10T01:09:15;56.95;;;28.23;;
50459;SDS011;36385;51.644;7.098;2022-12-10T01:11:45;58.75;;;28.42;;
50459;SDS011;36385;51.644;7.098;2022-12-10T01:14:13;63.17;;;28.45;;
50459;SDS011;36385;51.644;7.098;2022-12-10T01:16:42;61.95;;;29.38;;
50459;SDS011;36385;51.644;7.098;2022-12-10T01:19:08;62.78;;;29.10;;
50459;SDS011;36385;51.644;7.098;2022-12-10T01:21:34;62.58;;;29.27;;
50459;SDS011;36385;51.644;7.098;2022-12-10T01:24:00;58.70;;;29.42;;
50459;SDS011;36385;51.644;7.098;2022-12-10T01:26:28;64.97;;;28.25;;
50459;SDS011;36385;51.644;7.098;2022-12-10T01:28:57;68.13;;;29.58;;
50459;SDS011;36385;51.644;7.098;2022-12-10T01:31:25;66.05;;;28.60;;
50459;SDS011;36385;51.644;7.098;2022-12-10T01:33:52;69.88;;;30.63;;
50459;SDS011;36385;51.644;7.098;2022-12-10T01:38:46;66.97;;;30.02;;
50459;SDS011;36385;51.644;7.098;2022-12-10T01:41:17;60.45;;;29.27;;
50459;SDS011;36385;51.644;7.098;2022-12-10T01:46:25;63.88;;;28.23;;
50459;SDS011;36385;51.644;7.098;2022-12-10T01:48:53;60.90;;;27.42;;
50459;SDS011;36385;51.644;7.098;2022-12-10T01:51:19;64.80;;;28.77;;
50459;SDS011;36385;51.644;7.098;2022-12-10T01:53:46;60.08;;;28.05;;
50459;SDS011;36385;51.644;7.098;2022-12-10T01:56:12;57.20;;;26.92;;
50459;SDS011;36385;51.644;7.098;2022-12-10T01:58:41;60.17;;;28.23;;
50459;SDS011;36385;51.644;7.098;2022-12-10T02:04:08;58.85;;;27.88;;
50459;SDS011;36385;51.644;7.098;2022-12-10T02:17:19;95.22;;;38.95;;
50459;SDS011;36385;51.644;7.098;2022-12-10T02:22:33;68.68;;;31.65;;
50459;SDS011;36385;51.644;7.098;2022-12-10T02:25:03;65.97;;;30.05;;
50459;SDS011;36385;51.644;7.098;2022-12-10T02:27:48;60.67;;;29.45;;
50459;SDS011;36385;51.644;7.098;2022-12-10T02:30:26;59.50;;;28.20;;
50459;SDS011;36385;51.644;7.098;2022-12-10T02:32:53;60.10;;;28.23;;
50459;SDS011;36385;51.644;7.098;2022-12-10T02:35:21;57.20;;;27.38;;
50459;SDS011;36385;51.644;7.098;2022-12-10T02:37:53;58.60;;;26.83;;
50459;SDS011;36385;51.644;7.098;2022-12-10T02:40:23;59.33;;;27.55;;
50459;SDS011;36385;51.644;7.098;2022-12-10T02:42:53;59.88;;;27.25;;
50459;SDS011;36385;51.644;7.098;2022-12-10T02:45:20;61.00;;;28.30;;
50459;SDS011;36385;51.644;7.098;2022-12-10T02:47:49;64.20;;;28.02;;
50459;SDS011;36385;51.644;7.098;2022-12-10T02:50:18;66.53;;;29.40;;
50459;SDS011;36385;51.644;7.098;2022-12-10T02:52:45;67.05;;;27.95;;
50459;SDS011;36385;51.644;7.098;2022-12-10T02:55:11;60.15;;;27.40;;
50459;SDS011;36385;51.644;7.098;2022-12-10T03:00:25;62.45;;;28.45;;
50459;SDS011;36385;51.644;7.098;2022-12-10T03:05:57;63.17;;;29.30;;
50459;SDS011;36385;51.644;7.098;2022-12-10T03:09:00;65.13;;;29.38;;
50459;SDS011;36385;51.644;7.098;2022-12-10T03:11:29;58.83;;;28.17;;
50459;SDS011;36385;51.644;7.098;2022-12-10T03:14:18;66.53;;;29.45;;
50459;SDS011;36385;51.644;7.098;2022-12-10T03:16:53;65.47;;;28.50;;
50459;SDS011;36385;51.644;7.098;2022-12-10T03:19:21;66.80;;;29.45;;
50459;SDS011;36385;51.644;7.098;2022-12-10T03:21:51;61.53;;;28.00;;
50459;SDS011;36385;51.644;7.098;2022-12-10T03:24:18;62.95;;;28.42;;
50459;SDS011;36385;51.644;7.098;2022-12-10T03:26:46;58.28;;;27.98;;
50459;SDS011;36385;51.644;7.098;2022-12-10T03:29:15;54.53;;;27.05;;
50459;SDS011;36385;51.644;7.098;2022-12-10T03:31:46;59.63;;;26.98;;
50459;SDS011;36385;51.644;7.098;2022-12-10T03:34:13;57.42;;;27.38;;
50459;SDS011;36385;51.644;7.098;2022-12-10T03:36:40;59.38;;;28.02;;
50459;SDS011;36385;51.644;7.098;2022-12-10T03:39:07;62.45;;;27.63;;
50459;SDS011;36385;51.644;7.098;2022-12-10T03:41:33;61.00;;;27.42;;
50459;SDS011;36385;51.644;7.098;2022-12-10T03:43:59;57.75;;;28.52;;
50459;SDS011;36385;51.644;7.098;2022-12-10T03:46:26;58.35;;;27.02;;
50459;SDS011;36385;51.644;7.098;2022-12-10T03:48:54;57.78;;;27.52;;
50459;SDS011;36385;51.644;7.098;2022-12-10T03:51:20;61.55;;;26.90;;
50459;SDS011;36385;51.644;7.098;2022-12-10T03:53:46;63.13;;;28.42;;
50459;SDS011;36385;51.644;7.098;2022-12-10T03:56:13;55.15;;;27.92;;
50459;SDS011;36385;51.644;7.098;2022-12-10T03:58:39;58.42;;;26.85;;
50459;SDS011;36385;51.644;7.098;2022-12-10T04:01:05;60.40;;;27.27;;
50459;SDS011;36385;51.644;7.098;2022-12-10T04:03:33;56.45;;;26.60;;
50459;SDS011;36385;51.644;7.098;2022-12-10T04:06:01;57.13;;;26.70;;
50459;SDS011;36385;51.644;7.098;2022-12-10T04:08:30;58.35;;;26.55;;
50459;SDS011;36385;51.644;7.098;2022-12-10T04:11:01;55.00;;;26.52;;
50459;SDS011;36385;51.644;7.098;2022-12-10T04:13:29;60.55;;;27.80;;
50459;SDS011;36385;51.644;7.098;2022-12-10T04:16:15;58.83;;;27.17;;
50459;SDS011;36385;51.644;7.098;2022-12-10T04:18:53;55.03;;;26.65;;
50459;SDS011;36385;51.644;7.098;2022-12-10T04:21:19;57.90;;;26.88;;
50459;SDS011;36385;51.644;7.098;2022-12-10T04:24:04;59.03;;;28.30;;
50459;SDS011;36385;51.644;7.098;2022-12-10T04:29:16;55.40;;;26.77;;
50459;SDS011;36385;51.644;7.098;2022-12-10T04:31:43;55.08;;;25.83;;
50459;SDS011;36385;51.644;7.098;2022-12-10T04:34:09;58.45;;;27.88;;
50459;SDS011;36385;51.644;7.098;2022-12-10T04:36:34;57.85;;;27.63;;
50459;SDS011;36385;51.644;7.098;2022-12-10T04:39:00;61.13;;;27.80;;
50459;SDS011;36385;51.644;7.098;2022-12-10T04:41:26;62.03;;;27.25;;
50459;SDS011;36385;51.644;7.098;2022-12-10T04:43:52;55.83;;;27.73;;
50459;SDS011;36385;51.644;7.098;2022-12-10T04:46:17;61.38;;;27.40;;
50459;SDS011;36385;51.644;7.098;2022-12-10T04:48:43;63.97;;;27.92;;
50459;SDS011;36385;51.644;7.098;2022-12-10T04:51:09;59.95;;;28.10;;
50459;SDS011;36385;51.644;7.098;2022-12-10T04:53:34;58.97;;;26.60;;
50459;SDS011;36385;51.644;7.098;2022-12-10T04:56:00;58.78;;;27.27;;
50459;SDS011;36385;51.644;7.098;2022-12-10T04:58:26;58.78;;;26.70;;
50459;SDS011;36385;51.644;7.098;2022-12-10T05:01:02;63.67;;;27.88;;
50459;SDS011;36385;51.644;7.098;2022-12-10T05:03:29;59.42;;;27.25;;
50459;SDS011;36385;51.644;7.098;2022-12-10T05:05:56;58.53;;;26.83;;
50459;SDS011;36385;51.644;7.098;2022-12-10T05:08:29;62.67;;;28.45;;
50459;SDS011;36385;51.644;7.098;2022-12-10T05:10:55;61.92;;;28.38;;
50459;SDS011;36385;51.644;7.098;2022-12-10T05:13:25;55.97;;;26.70;;
50459;SDS011;36385;51.644;7.098;2022-12-10T05:15:51;58.13;;;26.63;;
50459;SDS011;36385;51.644;7.098;2022-12-10T05:18:16;57.00;;;27.30;;
50459;SDS011;36385;51.644;7.098;2022-12-10T05:20:42;59.63;;;27.30;;
50459;SDS011;36385;51.644;7.098;2022-12-10T05:23:08;62.03;;;27.92;;
50459;SDS011;36385;51.644;7.098;2022-12-10T05:30:53;57.10;;;27.30;;
50459;SDS011;36385;51.644;7.098;2022-12-10T05:33:19;58.38;;;27.63;;
50459;SDS011;36385;51.644;7.098;2022-12-10T05:35:58;59.05;;;27.50;;
50459;SDS011;36385;51.644;7.098;2022-12-10T05:38:25;65.03;;;29.10;;
50459;SDS011;36385;51.644;7.098;2022-12-10T05:40:52;62.63;;;28.35;;
50459;SDS011;36385;51.644;7.098;2022-12-10T05:43:18;57.58;;;28.75;;
50459;SDS011;36385;51.644;7.098;2022-12-10T05:45:44;61.50;;;29.73;;
50459;SDS011;36385;51.644;7.098;2022-12-10T05:48:10;61.25;;;29.02;;
50459;SDS011;36385;51.644;7.098;2022-12-10T05:50:37;61.30;;;28.73;;
50459;SDS011;36385;51.644;7.098;2022-12-10T05:53:03;68.38;;;30.35;;
50459;SDS011;36385;51.644;7.098;2022-12-10T05:55:28;61.72;;;29.10;;
50459;SDS011;36385;51.644;7.098;2022-12-10T05:57:56;58.72;;;29.77;;
50459;SDS011;36385;51.644;7.098;2022-12-10T06:00:22;62.97;;;29.80;;
50459;SDS011;36385;51.644;7.098;2022-12-10T06:02:49;70.60;;;32.92;;
50459;SDS011;36385;51.644;7.098;2022-12-10T06:05:15;72.28;;;33.88;;
50459;SDS011;36385;51.644;7.098;2022-12-10T06:07:41;73.70;;;32.88;;
50459;SDS011;36385;51.644;7.098;2022-12-10T06:10:06;70.28;;;32.78;;
50459;SDS011;36385;51.644;7.098;2022-12-10T06:12:32;68.72;;;32.00;;
50459;SDS011;36385;51.644;7.098;2022-12-10T06:14:58;64.45;;;30.73;;
50459;SDS011;36385;51.644;7.098;2022-12-10T06:17:24;68.43;;;31.05;;
50459;SDS011;36385;51.644;7.098;2022-12-10T06:19:49;66.85;;;30.23;;
50459;SDS011;36385;51.644;7.098;2022-12-10T06:22:15;61.92;;;29.20;;
50459;SDS011;36385;51.644;7.098;2022-12-10T06:24:40;59.92;;;28.52;;
50459;SDS011;36385;51.644;7.098;2022-12-10T06:27:06;59.42;;;28.88;;
50459;SDS011;36385;51.644;7.098;2022-12-10T06:29:32;57.70;;;27.25;;
50459;SDS011;36385;51.644;7.098;2022-12-10T06:31:57;54.35;;;27.30;;
50459;SDS011;36385;51.644;7.098;2022-12-10T06:34:23;56.28;;;26.85;;
50459;SDS011;36385;51.644;7.098;2022-12-10T06:36:49;54.00;;;27.05;;
50459;SDS011;36385;51.644;7.098;2022-12-10T06:39:14;61.15;;;28.83;;
50459;SDS011;36385;51.644;7.098;2022-12-10T06:41:40;57.95;;;26.27;;
50459;SDS011;36385;51.644;7.098;2022-12-10T06:44:08;56.80;;;27.00;;
50459;SDS011;36385;51.644;7.098;2022-12-10T06:46:35;56.67;;;27.20;;
50459;SDS011;36385;51.644;7.098;2022-12-10T06:49:01;54.05;;;26.10;;
50459;SDS011;36385;51.644;7.098;2022-12-10T06:51:27;59.85;;;27.30;;
50459;SDS011;36385;51.644;7.098;2022-12-10T06:53:53;57.70;;;27.02;;
50459;SDS011;36385;51.644;7.098;2022-12-10T06:56:19;53.65;;;26.77;;
50459;SDS011;36385;51.644;7.098;2022-12-10T06:58:45;55.55;;;27.35;;
50459;SDS011;36385;51.644;7.098;2022-12-10T07:01:12;55.40;;;26.60;;
50459;SDS011;36385;51.644;7.098;2022-12-10T07:03:39;58.92;;;27.05;;
50459;SDS011;36385;51.644;7.098;2022-12-10T07:06:05;61.15;;;27.75;;
50459;SDS011;36385;51.644;7.098;2022-12-10T07:08:33;61.05;;;27.85;;
50459;SDS011;36385;51.644;7.098;2022-12-10T07:10:59;59.88;;;28.33;;
50459;SDS011;36385;51.644;7.098;2022-12-10T07:13:27;61.72;;;28.25;;
50459;SDS011;36385;51.644;7.098;2022-12-10T07:15:53;60.40;;;28.48;;
50459;SDS011;36385;51.644;7.098;2022-12-10T07:18:19;55.92;;;26.58;;
50459;SDS011;36385;51.644;7.098;2022-12-10T07:20:44;57.10;;;27.77;;
50459;SDS011;36385;51.644;7.098;2022-12-10T07:23:10;62.55;;;29.40;;
50459;SDS011;36385;51.644;7.098;2022-12-10T07:25:36;65.47;;;31.38;;
50459;SDS011;36385;51.644;7.098;2022-12-10T07:28:01;62.00;;;29.38;;
50459;SDS011;36385;51.644;7.098;2022-12-10T07:30:27;62.28;;;28.77;;
50459;SDS011;36385;51.644;7.098;2022-12-10T07:32:52;63.75;;;29.10;;
50459;SDS011;36385;51.644;7.098;2022-12-10T07:35:18;66.25;;;29.65;;
50459;SDS011;36385;51.644;7.098;2022-12-10T07:37:44;66.18;;;30.85;;
50459;SDS011;36385;51.644;7.098;2022-12-10T07:40:09;64.00;;;30.00;;
50459;SDS011;36385;51.644;7.098;2022-12-10T07:42:35;70.57;;;30.65;;
50459;SDS011;36385;51.644;7.098;2022-12-10T07:45:01;73.25;;;31.88;;
50459;SDS011;36385;51.644;7.098;2022-12-10T07:47:28;82.28;;;32.70;;
50459;SDS011;36385;51.644;7.098;2022-12-10T07:49:54;87.50;;;33.90;;
50459;SDS011;36385;51.644;7.098;2022-12-10T07:52:19;93.63;;;34.10;;
50459;SDS011;36385;51.644;7.098;2022-12-10T07:54:45;104.43;;;38.17;;
50459;SDS011;36385;51.644;7.098;2022-12-10T07:57:10;97.50;;;35.72;;
50459;SDS011;36385;51.644;7.098;2022-12-10T07:59:36;95.20;;;35.33;;
50459;SDS011;36385;51.644;7.098;2022-12-10T08:02:02;92.63;;;36.22;;
50459;SDS011;36385;51.644;7.098;2022-12-10T08:04:28;90.20;;;33.33;;
50459;SDS011;36385;51.644;7.098;2022-12-10T08:06:55;94.50;;;33.38;;
50459;SDS011;36385;51.644;7.098;2022-12-10T08:09:20;82.93;;;31.98;;
50459;SDS011;36385;51.644;7.098;2022-12-10T08:11:46;89.30;;;34.10;;
50459;SDS011;36385;51.644;7.098;2022-12-10T08:14:12;97.70;;;35.45;;
50459;SDS011;36385;51.644;7.098;2022-12-10T08:16:37;91.32;;;34.00;;
50459;SDS011;36385;51.644;7.098;2022-12-10T08:19:03;85.78;;;32.38;;
50459;SDS011;36385;51.644;7.098;2022-12-10T08:21:29;84.10;;;32.13;;
50459;SDS011;36385;51.644;7.098;2022-12-10T08:23:57;108.63;;;33.25;;
50459;SDS011;36385;51.644;7.098;2022-12-10T08:26:24;91.85;;;32.38;;
50459;SDS011;36385;51.644;7.098;2022-12-10T08:28:52;97.97;;;33.67;;
50459;SDS011;36385;51.644;7.098;2022-12-10T08:31:19;104.80;;;33.22;;
50459;SDS011;36385;51.644;7.098;2022-12-10T08:33:46;99.45;;;34.10;;
50459;SDS011;36385;51.644;7.098;2022-12-10T08:36:13;97.05;;;33.97;;
50459;SDS011;36385;51.644;7.098;2022-12-10T08:38:41;110.53;;;35.40;;
50459;SDS011;36385;51.644;7.098;2022-12-10T08:43:37;111.65;;;35.22;;
50459;SDS011;36385;51.644;7.098;2022-12-10T08:46:03;113.82;;;36.40;;
50459;SDS011;36385;51.644;7.098;2022-12-10T08:48:29;114.95;;;34.60;;
50459;SDS011;36385;51.644;7.098;2022-12-10T08:50:55;105.50;;;35.65;;
50459;SDS011;36385;51.644;7.098;2022-12-10T08:53:21;110.38;;;36.17;;
50459;SDS011;36385;51.644;7.098;2022-12-10T08:55:49;104.75;;;35.95;;
50459;SDS011;36385;51.644;7.098;2022-12-10T08:58:18;97.38;;;34.40;;
50459;SDS011;36385;51.644;7.098;2022-12-10T09:00:44;105.55;;;35.95;;
50459;SDS011;36385;51.644;7.098;2022-12-10T09:03:11;98.35;;;35.67;;
50459;SDS011;36385;51.644;7.098;2022-12-10T09:05:36;106.05;;;36.72;;
50459;SDS011;36385;51.644;7.098;2022-12-10T09:08:02;105.97;;;36.20;;
50459;SDS011;36385;51.644;7.098;2022-12-10T09:10:28;114.68;;;37.55;;
50459;SDS011;36385;51.644;7.098;2022-12-10T09:12:54;107.38;;;36.55;;
50459;SDS011;36385;51.644;7.098;2022-12-10T09:15:19;105.75;;;35.10;;
50459;SDS011;36385;51.644;7.098;2022-12-10T09:17:45;103.57;;;36.25;;
50459;SDS011;36385;51.644;7.098;2022-12-10T09:20:11;109.43;;;37.55;;
50459;SDS011;36385;51.644;7.098;2022-12-10T09:22:37;102.05;;;35.40;;
50459;SDS011;36385;51.644;7.098;2022-12-10T09:25:04;102.25;;;36.40;;
50459;SDS011;36385;51.644;7.098;2022-12-10T09:27:31;97.68;;;35.72;;
50459;SDS011;36385;51.644;7.098;2022-12-10T09:29:57;105.63;;;35.65;;
50459;SDS011;36385;51.644;7.098;2022-12-10T09:32:23;100.53;;;35.80;;
50459;SDS011;36385;51.644;7.098;2022-12-10T09:34:52;98.45;;;34.75;;
50459;SDS011;36385;51.644;7.098;2022-12-10T09:37:17;93.60;;;33.72;;
50459;SDS011;36385;51.644;7.098;2022-12-10T09:39:43;99.38;;;35.03;;
50459;SDS011;36385;51.644;7.098;2022-12-10T09:45:32;94.53;;;33.60;;
50459;SDS011;36385;51.644;7.098;2022-12-10T09:53:39;96.13;;;34.25;;
50459;SDS011;36385;51.644;7.098;2022-12-10T09:56:10;99.40;;;34.38;;
50459;SDS011;36385;51.644;7.098;2022-12-10T09:58:46;89.30;;;31.77;;
50459;SDS011;36385;51.644;7.098;2022-12-10T10:01:12;96.25;;;35.00;;
50459;SDS011;36385;51.644;7.098;2022-12-10T10:03:41;94.00;;;34.00;;
50459;SDS011;36385;51.644;7.098;2022-12-10T10:06:13;92.25;;;33.05;;
50459;SDS011;36385;51.644;7.098;2022-12-10T10:11:05;100.35;;;35.00;;
50459;SDS011;36385;51.644;7.098;2022-12-10T10:13:39;93.88;;;35.63;;
50459;SDS011;36385;51.644;7.098;2022-12-10T10:19:01;99.22;;;34.53;;
50459;SDS011;36385;51.644;7.098;2022-12-10T10:22:08;103.57;;;34.90;;
50459;SDS011;36385;51.644;7.098;2022-12-10T10:24:36;97.78;;;33.45;;
50459;SDS011;36385;51.644;7.098;2022-12-10T10:27:11;103.35;;;34.90;;
50459;SDS011;36385;51.644;7.098;2022-12-10T10:29:39;102.55;;;35.60;;
50459;SDS011;36385;51.644;7.098;2022-12-10T10:32:14;110.35;;;36.17;;
50459;SDS011;36385;51.644;7.098;2022-12-10T10:34:45;103.55;;;35.20;;
50459;SDS011;36385;51.644;7.098;2022-12-10T10:37:16;101.15;;;35.92;;
50459;SDS011;36385;51.644;7.098;2022-12-10T10:39:50;100.82;;;35.15;;
50459;SDS011;36385;51.644;7.098;2022-12-10T10:44:48;98.80;;;35.17;;
50459;SDS011;36385;51.644;7.098;2022-12-10T10:47:30;100.00;;;35.78;;
50459;SDS011;36385;51.644;7.098;2022-12-10T10:49:57;91.97;;;33.10;;
50459;SDS011;36385;51.644;7.098;2022-12-10T10:52:25;88.88;;;34.92;;
50459;SDS011;36385;51.644;7.098;2022-12-10T10:54:54;87.35;;;34.03;;
50459;SDS011;36385;51.644;7.098;2022-12-10T10:59:46;99.45;;;35.88;;
50459;SDS011;36385;51.644;7.098;2022-12-10T11:04:51;99.43;;;35.53;;
50459;SDS011;36385;51.644;7.098;2022-12-10T11:09:59;89.97;;;33.58;;
50459;SDS011;36385;51.644;7.098;2022-12-10T11:12:36;89.63;;;34.17;;
50459;SDS011;36385;51.644;7.098;2022-12-10T11:15:53;85.82;;;32.33;;
50459;SDS011;36385;51.644;7.098;2022-12-10T11:17:55;94.50;;;35.30;;
50459;SDS011;36385;51.644;7.098;2022-12-10T11:20:22;88.43;;;33.25;;
50459;SDS011;36385;51.644;7.098;2022-12-10T11:22:55;91.88;;;35.17;;
50459;SDS011;36385;51.644;7.098;2022-12-10T11:31:13;86.85;;;34.90;;
50459;SDS011;36385;51.644;7.098;2022-12-10T11:50:56;86.72;;;31.35;;
50459;SDS011;36385;51.644;7.098;2022-12-10T11:56:24;80.35;;;32.90;;
50459;SDS011;36385;51.644;7.098;2022-12-10T11:59:25;72.40;;;30.98;;
50459;SDS011;36385;51.644;7.098;2022-12-10T12:05:07;71.35;;;30.95;;
50459;SDS011;36385;51.644;7.098;2022-12-10T12:07:38;76.03;;;31.05;;
50459;SDS011;36385;51.644;7.098;2022-12-10T12:13:05;80.72;;;31.58;;
50459;SDS011;36385;51.644;7.098;2022-12-10T12:15:50;76.35;;;30.45;;
50459;SDS011;36385;51.644;7.098;2022-12-10T12:21:20;78.45;;;31.73;;
50459;SDS011;36385;51.644;7.098;2022-12-10T12:23:51;74.63;;;31.08;;
50459;SDS011;36385;51.644;7.098;2022-12-10T12:28:59;75.78;;;31.27;;
50459;SDS011;36385;51.644;7.098;2022-12-10T12:31:37;79.57;;;31.67;;
50459;SDS011;36385;51.644;7.098;2022-12-10T12:34:11;79.07;;;31.70;;
50459;SDS011;36385;51.644;7.098;2022-12-10T12:36:38;80.70;;;32.70;;
50459;SDS011;36385;51.644;7.098;2022-12-10T12:39:12;85.53;;;33.75;;
50459;SDS011;36385;51.644;7.098;2022-12-10T12:44:15;78.15;;;31.88;;
50459;SDS011;36385;51.644;7.098;2022-12-10T12:47:02;92.55;;;37.65;;
50459;SDS011;36385;51.644;7.098;2022-12-10T12:49:44;90.50;;;34.08;;
50459;SDS011;36385;51.644;7.098;2022-12-10T12:52:29;81.05;;;32.58;;
50459;SDS011;36385;51.644;7.098;2022-12-10T13:00:36;81.88;;;30.67;;
50459;SDS011;36385;51.644;7.098;2022-12-10T13:16:34;73.60;;;30.70;;
50459;SDS011;36385;51.644;7.098;2022-12-10T13:29:43;71.32;;;28.35;;
50459;SDS011;36385;51.644;7.098;2022-12-10T13:32:44;72.38;;;27.67;;
50459;SDS011;36385;51.644;7.098;2022-12-10T13:49:00;70.28;;;27.67;;
50459;SDS011;36385;51.644;7.098;2022-12-10T13:55:04;58.85;;;25.45;;
50459;SDS011;36385;51.644;7.098;2022-12-10T14:02:32;64.28;;;25.52;;
50459;SDS011;36385;51.644;7.098;2022-12-10T14:05:23;61.17;;;24.90;;
50459;SDS011;36385;51.644;7.098;2022-12-10T14:07:51;62.75;;;26.17;;
50459;SDS011;36385;51.644;7.098;2022-12-10T14:10:20;63.35;;;26.90;;
50459;SDS011;36385;51.644;7.098;2022-12-10T14:12:52;65.82;;;27.10;;
50459;SDS011;36385;51.644;7.098;2022-12-10T14:15:20;59.80;;;24.98;;
50459;SDS011;36385;51.644;7.098;2022-12-10T14:17:59;63.13;;;25.58;;
50459;SDS011;36385;51.644;7.098;2022-12-10T14:20:28;66.35;;;27.92;;
50459;SDS011;36385;51.644;7.098;2022-12-10T14:22:56;63.80;;;28.67;;
50459;SDS011;36385;51.644;7.098;2022-12-10T14:25:42;64.93;;;28.30;;
50459;SDS011;36385;51.644;7.098;2022-12-10T14:28:16;63.20;;;29.17;;
50459;SDS011;36385;51.644;7.098;2022-12-10T14:30:43;65.63;;;31.38;;
50459;SDS011;36385;51.644;7.098;2022-12-10T14:33:12;66.60;;;29.65;;
50459;SDS011;36385;51.644;7.098;2022-12-10T14:35:48;57.80;;;27.85;;
50459;SDS011;36385;51.644;7.098;2022-12-10T14:40:45;68.15;;;30.00;;
50459;SDS011;36385;51.644;7.098;2022-12-10T14:43:15;68.00;;;28.48;;
50459;SDS011;36385;51.644;7.098;2022-12-10T14:45:48;68.22;;;28.73;;
50459;SDS011;36385;51.644;7.098;2022-12-10T14:48:22;61.35;;;28.02;;
50459;SDS011;36385;51.644;7.098;2022-12-10T14:50:48;67.22;;;30.08;;
50459;SDS011;36385;51.644;7.098;2022-12-10T14:53:15;63.70;;;27.50;;
50459;SDS011;36385;51.644;7.098;2022-12-10T14:55:48;58.05;;;26.67;;
50459;SDS011;36385;51.644;7.098;2022-12-10T14:58:27;67.30;;;27.77;;
50459;SDS011;36385;51.644;7.098;2022-12-10T15:01:02;63.33;;;28.60;;
50459;SDS011;36385;51.644;7.098;2022-12-10T15:03:29;62.22;;;26.50;;
50459;SDS011;36385;51.644;7.098;2022-12-10T15:05:59;67.63;;;29.63;;
50459;SDS011;36385;51.644;7.098;2022-12-10T15:08:28;72.97;;;30.75;;
50459;SDS011;36385;51.644;7.098;2022-12-10T15:10:55;68.25;;;29.45;;
50459;SDS011;36385;51.644;7.098;2022-12-10T15:13:23;73.50;;;29.70;;
50459;SDS011;36385;51.644;7.098;2022-12-10T15:15:56;72.25;;;29.10;;
50459;SDS011;36385;51.644;7.098;2022-12-10T15:18:34;65.15;;;28.85;;
50459;SDS011;36385;51.644;7.098;2022-12-10T15:23:41;71.93;;;29.63;;
50459;SDS011;36385;51.644;7.098;2022-12-10T15:26:21;68.55;;;31.35;;
50459;SDS011;36385;51.644;7.098;2022-12-10T15:28:48;76.28;;;30.13;;
50459;SDS011;36385;51.644;7.098;2022-12-10T15:33:57;72.35;;;30.30;;
50459;SDS011;36385;51.644;7.098;2022-12-10T15:41:58;73.07;;;29.50;;
50459;SDS011;36385;51.644;7.098;2022-12-10T15:44:39;72.13;;;30.15;;
50459;SDS011;36385;51.644;7.098;2022-12-10T15:49:47;73.05;;;30.30;;
50459;SDS011;36385;51.644;7.098;2022-12-10T15:52:21;68.97;;;30.05;;
50459;SDS011;36385;51.644;7.098;2022-12-10T15:54:49;75.97;;;32.20;;
50459;SDS011;36385;51.644;7.098;2022-12-10T15:57:17;74.22;;;31.80;;
50459;SDS011;36385;51.644;7.098;2022-12-10T15:59:54;74.57;;;30.38;;
50459;SDS011;36385;51.644;7.098;2022-12-10T16:07:36;70.97;;;30.43;;
50459;SDS011;36385;51.644;7.098;2022-12-10T16:10:02;70.60;;;30.30;;
50459;SDS011;36385;51.644;7.098;2022-12-10T16:12:28;70.43;;;28.60;;
50459;SDS011;36385;51.644;7.098;2022-12-10T16:14:54;70.50;;;28.98;;
50459;SDS011;36385;51.644;7.098;2022-12-10T16:17:25;71.88;;;30.48;;
50459;SDS011;36385;51.644;7.098;2022-12-10T16:19:52;80.80;;;32.53;;
50459;SDS011;36385;51.644;7.098;2022-12-10T16:22:18;70.18;;;29.63;;
50459;SDS011;36385;51.644;7.098;2022-12-10T16:24:44;76.45;;;31.00;;
50459;SDS011;36385;51.644;7.098;2022-12-10T16:27:13;86.90;;;32.42;;
50459;SDS011;36385;51.644;7.098;2022-12-10T16:29:40;73.40;;;32.70;;
50459;SDS011;36385;51.644;7.098;2022-12-10T16:32:09;79.20;;;33.40;;
50459;SDS011;36385;51.644;7.098;2022-12-10T16:34:36;72.65;;;32.90;;
50459;SDS011;36385;51.644;7.098;2022-12-10T16:37:02;71.03;;;29.38;;
50459;SDS011;36385;51.644;7.098;2022-12-10T16:39:29;69.93;;;28.75;;
50459;SDS011;36385;51.644;7.098;2022-12-10T16:41:54;71.45;;;29.42;;
50459;SDS011;36385;51.644;7.098;2022-12-10T16:44:20;67.93;;;28.33;;
50459;SDS011;36385;51.644;7.098;2022-12-10T16:46:46;69.72;;;28.17;;
50459;SDS011;36385;51.644;7.098;2022-12-10T16:49:11;66.10;;;26.83;;
50459;SDS011;36385;51.644;7.098;2022-12-10T16:51:37;59.53;;;28.38;;
50459;SDS011;36385;51.644;7.098;2022-12-10T16:54:04;67.15;;;28.92;;
50459;SDS011;36385;51.644;7.098;2022-12-10T16:56:30;66.30;;;27.23;;
50459;SDS011;36385;51.644;7.098;2022-12-10T16:58:56;58.70;;;26.55;;
50459;SDS011;36385;51.644;7.098;2022-12-10T17:01:22;61.22;;;26.70;;
50459;SDS011;36385;51.644;7.098;2022-12-10T17:03:52;60.97;;;26.20;;
50459;SDS011;36385;51.644;7.098;2022-12-10T17:06:20;65.68;;;26.33;;
50459;SDS011;36385;51.644;7.098;2022-12-10T17:08:46;55.17;;;25.77;;
50459;SDS011;36385;51.644;7.098;2022-12-10T17:14:03;59.65;;;26.25;;
50459;SDS011;36385;51.644;7.098;2022-12-10T17:16:30;60.75;;;27.08;;
50459;SDS011;36385;51.644;7.098;2022-12-10T17:18:55;62.08;;;27.10;;
50459;SDS011;36385;51.644;7.098;2022-12-10T17:21:21;60.53;;;25.80;;
50459;SDS011;36385;51.644;7.098;2022-12-10T17:23:47;60.22;;;26.50;;
50459;SDS011;36385;51.644;7.098;2022-12-10T17:26:36;62.40;;;27.05;;
50459;SDS011;36385;51.644;7.098;2022-12-10T17:29:03;63.42;;;27.70;;
50459;SDS011;36385;51.644;7.098;2022-12-10T17:31:37;65.28;;;27.25;;